sensor_id;sensor_type;location;lat;lon;timestamp;temperature;humidity
76996;DHT22;65929;49.062;10.338;2023-12-07T00:00:54;0.20;97.80
76996;DHT22;65929;49.062;10.338;2023-12-07T00:01:55;0.20;97.80
76996;DHT22;65929;49.062;10.338;2023-12-07T00:02:56;0.20;97.70
76996;DHT22;65929;49.062;10.338;2023-12-07T00:03:57;0.20;97.80
76996;DHT22;65929;49.062;10.338;2023-12-07T00:04:57;0.20;97.80
76996;DHT22;65929;49.062;10.338;2023-12-07T00:06:02;0.20;97.80
76996;DHT22;65929;49.062;10.338;2023-12-07T00:07:04;0.20;97.80
76996;DHT22;65929;49.062;10.338;2023-12-07T00:08:05;0.20;97.70
76996;DHT22;65929;49.062;10.338;2023-12-07T00:09:06;0.20;97.80
76996;DHT22;65929;49.062;10.338;2023-12-07T00:10:07;0.20;97.70
76996;DHT22;65929;49.062;10.338;2023-12-07T00:11:10;0.20;97.70
76996;DHT22;65929;49.062;10.338;2023-12-07T00:12:11;0.20;97.70
76996;DHT22;65929;49.062;10.338;2023-12-07T00:13:12;0.10;97.70
76996;DHT22;65929;49.062;10.338;2023-12-07T00:14:13;0.00;97.70
76996;DHT22;65929;49.062;10.338;2023-12-07T00:15:14;0.00;97.70
76996;DHT22;65929;49.062;10.338;2023-12-07T00:16:15;0.00;97.60
76996;DHT22;65929;49.062;10.338;2023-12-07T00:17:16;0.00;97.70
76996;DHT22;65929;49.062;10.338;2023-12-07T00:18:17;0.00;97.70
76996;DHT22;65929;49.062;10.338;2023-12-07T00:19:17;0.00;97.70
76996;DHT22;65929;49.062;10.338;2023-12-07T00:20:19;0.00;97.80
76996;DHT22;65929;49.062;10.338;2023-12-07T00:21:20;0.00;97.80
76996;DHT22;65929;49.062;10.338;2023-12-07T00:22:21;0.00;97.80
76996;DHT22;65929;49.062;10.338;2023-12-07T00:23:22;0.00;97.80
76996;DHT22;65929;49.062;10.338;2023-12-07T00:24:22;0.00;97.80
76996;DHT22;65929;49.062;10.338;2023-12-07T00:25:23;0.00;97.80
76996;DHT22;65929;49.062;10.338;2023-12-07T00:26:26;-0.10;97.80
76996;DHT22;65929;49.062;10.338;2023-12-07T00:27:26;-0.10;97.90
76996;DHT22;65929;49.062;10.338;2023-12-07T00:28:27;-0.10;97.90
76996;DHT22;65929;49.062;10.338;2023-12-07T00:29:28;0.00;98.00
76996;DHT22;65929;49.062;10.338;2023-12-07T00:30:29;0.00;98.00
76996;DHT22;65929;49.062;10.338;2023-12-07T00:31:30;0.00;98.10
76996;DHT22;65929;49.062;10.338;2023-12-07T00:32:31;0.00;98.10
76996;DHT22;65929;49.062;10.338;2023-12-07T00:33:32;0.00;98.10
76996;DHT22;65929;49.062;10.338;2023-12-07T00:34:33;0.00;98.10
76996;DHT22;65929;49.062;10.338;2023-12-07T00:35:34;0.00;98.10
76996;DHT22;65929;49.062;10.338;2023-12-07T00:36:35;0.00;98.20
76996;DHT22;65929;49.062;10.338;2023-12-07T00:37:35;0.00;98.20
76996;DHT22;65929;49.062;10.338;2023-12-07T00:38:36;0.00;98.20
76996;DHT22;65929;49.062;10.338;2023-12-07T00:39:37;0.00;98.20
76996;DHT22;65929;49.062;10.338;2023-12-07T00:40:38;0.00;98.20
76996;DHT22;65929;49.062;10.338;2023-12-07T00:41:42;0.00;98.20
76996;DHT22;65929;49.062;10.338;2023-12-07T00:42:42;0.00;98.20
76996;DHT22;65929;49.062;10.338;2023-12-07T00:43:43;0.00;98.20
76996;DHT22;65929;49.062;10.338;2023-12-07T00:44:44;0.00;98.20
76996;DHT22;65929;49.062;10.338;2023-12-07T00:45:45;0.00;98.20
76996;DHT22;65929;49.062;10.338;2023-12-07T00:46:46;0.00;98.20
76996;DHT22;65929;49.062;10.338;2023-12-07T00:47:47;0.00;98.20
76996;DHT22;65929;49.062;10.338;2023-12-07T00:48:48;0.00;98.20
76996;DHT22;65929;49.062;10.338;2023-12-07T00:49:49;0.00;98.20
76996;DHT22;65929;49.062;10.338;2023-12-07T00:50:50;0.00;98.20
76996;DHT22;65929;49.062;10.338;2023-12-07T00:51:50;0.00;98.30
76996;DHT22;65929;49.062;10.338;2023-12-07T00:52:51;0.00;98.30
76996;DHT22;65929;49.062;10.338;2023-12-07T00:53:52;0.00;98.20
76996;DHT22;65929;49.062;10.338;2023-12-07T00:54:53;0.00;98.30
76996;DHT22;65929;49.062;10.338;2023-12-07T00:55:54;0.10;98.30
76996;DHT22;65929;49.062;10.338;2023-12-07T00:56:56;0.10;98.30
76996;DHT22;65929;49.062;10.338;2023-12-07T00:57:58;0.10;98.30
76996;DHT22;65929;49.062;10.338;2023-12-07T00:59:02;0.00;98.30
76996;DHT22;65929;49.062;10.338;2023-12-07T01:00:03;0.10;98.20
76996;DHT22;65929;49.062;10.338;2023-12-07T01:01:05;0.00;98.20
76996;DHT22;65929;49.062;10.338;2023-12-07T01:02:06;0.00;98.20
76996;DHT22;65929;49.062;10.338;2023-12-07T01:03:07;0.00;98.20
76996;DHT22;65929;49.062;10.338;2023-12-07T01:04:08;0.00;98.20
76996;DHT22;65929;49.062;10.338;2023-12-07T01:05:09;0.00;98.20
76996;DHT22;65929;49.062;10.338;2023-12-07T01:06:10;0.00;98.20
76996;DHT22;65929;49.062;10.338;2023-12-07T01:07:12;0.00;98.20
76996;DHT22;65929;49.062;10.338;2023-12-07T01:08:13;0.00;98.20
76996;DHT22;65929;49.062;10.338;2023-12-07T01:09:14;0.00;98.20
76996;DHT22;65929;49.062;10.338;2023-12-07T01:10:15;0.00;98.20
76996;DHT22;65929;49.062;10.338;2023-12-07T01:11:16;0.00;98.20
76996;DHT22;65929;49.062;10.338;2023-12-07T01:12:18;0.00;98.20
76996;DHT22;65929;49.062;10.338;2023-12-07T01:13:19;0.00;98.20
76996;DHT22;65929;49.062;10.338;2023-12-07T01:14:20;0.00;98.30
76996;DHT22;65929;49.062;10.338;2023-12-07T01:15:21;0.00;98.20
76996;DHT22;65929;49.062;10.338;2023-12-07T01:16:22;0.00;98.30
76996;DHT22;65929;49.062;10.338;2023-12-07T01:17:23;0.00;98.30
76996;DHT22;65929;49.062;10.338;2023-12-07T01:18:24;0.00;98.30
76996;DHT22;65929;49.062;10.338;2023-12-07T01:19:25;0.00;98.20
76996;DHT22;65929;49.062;10.338;2023-12-07T01:20:26;0.00;98.30
76996;DHT22;65929;49.062;10.338;2023-12-07T01:21:27;0.00;98.30
76996;DHT22;65929;49.062;10.338;2023-12-07T01:22:27;0.00;98.30
76996;DHT22;65929;49.062;10.338;2023-12-07T01:23:28;0.00;98.30
76996;DHT22;65929;49.062;10.338;2023-12-07T01:24:29;0.00;98.30
76996;DHT22;65929;49.062;10.338;2023-12-07T01:25:30;0.00;98.30
76996;DHT22;65929;49.062;10.338;2023-12-07T01:26:32;0.00;98.30
76996;DHT22;65929;49.062;10.338;2023-12-07T01:27:34;0.00;98.30
76996;DHT22;65929;49.062;10.338;2023-12-07T01:28:35;0.00;98.20
76996;DHT22;65929;49.062;10.338;2023-12-07T01:29:36;0.00;98.20
76996;DHT22;65929;49.062;10.338;2023-12-07T01:30:37;0.00;98.20
76996;DHT22;65929;49.062;10.338;2023-12-07T01:31:37;0.00;98.20
76996;DHT22;65929;49.062;10.338;2023-12-07T01:32:38;0.00;98.20
76996;DHT22;65929;49.062;10.338;2023-12-07T01:33:39;-0.10;98.30
76996;DHT22;65929;49.062;10.338;2023-12-07T01:34:40;-0.10;98.20
76996;DHT22;65929;49.062;10.338;2023-12-07T01:35:41;-0.10;98.20
76996;DHT22;65929;49.062;10.338;2023-12-07T01:36:43;-0.10;98.30
76996;DHT22;65929;49.062;10.338;2023-12-07T01:37:45;-0.10;98.30
76996;DHT22;65929;49.062;10.338;2023-12-07T01:38:45;-0.10;98.30
76996;DHT22;65929;49.062;10.338;2023-12-07T01:39:47;-0.10;98.30
76996;DHT22;65929;49.062;10.338;2023-12-07T01:40:48;-0.10;98.30
76996;DHT22;65929;49.062;10.338;2023-12-07T01:41:49;0.00;98.40
76996;DHT22;65929;49.062;10.338;2023-12-07T01:42:52;-0.10;98.30
76996;DHT22;65929;49.062;10.338;2023-12-07T01:43:53;-0.10;98.40
76996;DHT22;65929;49.062;10.338;2023-12-07T01:44:54;-0.10;98.30
76996;DHT22;65929;49.062;10.338;2023-12-07T01:45:57;-0.10;98.30
76996;DHT22;65929;49.062;10.338;2023-12-07T01:46:58;0.00;98.40
76996;DHT22;65929;49.062;10.338;2023-12-07T01:47:59;0.00;98.40
76996;DHT22;65929;49.062;10.338;2023-12-07T01:49:01;0.00;98.40
76996;DHT22;65929;49.062;10.338;2023-12-07T01:50:02;0.00;98.40
76996;DHT22;65929;49.062;10.338;2023-12-07T01:51:07;0.00;98.40
76996;DHT22;65929;49.062;10.338;2023-12-07T01:52:09;0.00;98.40
76996;DHT22;65929;49.062;10.338;2023-12-07T01:53:11;0.00;98.40
76996;DHT22;65929;49.062;10.338;2023-12-07T01:54:13;0.00;98.40
76996;DHT22;65929;49.062;10.338;2023-12-07T01:55:17;0.00;98.40
76996;DHT22;65929;49.062;10.338;2023-12-07T01:56:19;0.00;98.40
76996;DHT22;65929;49.062;10.338;2023-12-07T01:57:20;0.00;98.40
76996;DHT22;65929;49.062;10.338;2023-12-07T01:58:22;0.00;98.40
76996;DHT22;65929;49.062;10.338;2023-12-07T01:59:24;-0.10;98.40
76996;DHT22;65929;49.062;10.338;2023-12-07T02:00:26;-0.10;98.40
76996;DHT22;65929;49.062;10.338;2023-12-07T02:01:28;-0.10;98.40
76996;DHT22;65929;49.062;10.338;2023-12-07T02:02:28;-0.10;98.40
76996;DHT22;65929;49.062;10.338;2023-12-07T02:03:30;-0.10;98.40
76996;DHT22;65929;49.062;10.338;2023-12-07T02:04:31;-0.10;98.40
76996;DHT22;65929;49.062;10.338;2023-12-07T02:05:33;-0.10;98.40
76996;DHT22;65929;49.062;10.338;2023-12-07T02:06:35;0.00;98.40
76996;DHT22;65929;49.062;10.338;2023-12-07T02:07:36;-0.10;98.40
76996;DHT22;65929;49.062;10.338;2023-12-07T02:08:37;0.00;98.50
76996;DHT22;65929;49.062;10.338;2023-12-07T02:09:41;0.00;98.50
76996;DHT22;65929;49.062;10.338;2023-12-07T02:10:43;0.00;98.50
76996;DHT22;65929;49.062;10.338;2023-12-07T02:11:44;0.00;98.50
76996;DHT22;65929;49.062;10.338;2023-12-07T02:12:45;0.00;98.50
76996;DHT22;65929;49.062;10.338;2023-12-07T02:13:48;0.00;98.50
76996;DHT22;65929;49.062;10.338;2023-12-07T02:14:49;0.00;98.50
76996;DHT22;65929;49.062;10.338;2023-12-07T02:15:51;0.00;98.50
76996;DHT22;65929;49.062;10.338;2023-12-07T02:16:56;0.00;98.40
76996;DHT22;65929;49.062;10.338;2023-12-07T02:18:06;0.00;98.40
76996;DHT22;65929;49.062;10.338;2023-12-07T02:19:21;0.00;98.40
76996;DHT22;65929;49.062;10.338;2023-12-07T02:20:28;0.00;98.40
76996;DHT22;65929;49.062;10.338;2023-12-07T02:21:34;0.00;98.30
76996;DHT22;65929;49.062;10.338;2023-12-07T02:22:38;0.00;98.30
76996;DHT22;65929;49.062;10.338;2023-12-07T02:23:41;0.00;98.30
76996;DHT22;65929;49.062;10.338;2023-12-07T02:24:48;0.00;98.30
76996;DHT22;65929;49.062;10.338;2023-12-07T02:25:56;0.00;98.30
76996;DHT22;65929;49.062;10.338;2023-12-07T02:27:02;0.00;98.20
76996;DHT22;65929;49.062;10.338;2023-12-07T02:28:03;0.00;98.20
76996;DHT22;65929;49.062;10.338;2023-12-07T02:29:04;0.00;98.20
76996;DHT22;65929;49.062;10.338;2023-12-07T02:30:06;0.00;98.20
76996;DHT22;65929;49.062;10.338;2023-12-07T02:31:07;-0.10;98.20
76996;DHT22;65929;49.062;10.338;2023-12-07T02:32:08;-0.10;98.20
76996;DHT22;65929;49.062;10.338;2023-12-07T02:33:10;-0.10;98.20
76996;DHT22;65929;49.062;10.338;2023-12-07T02:34:11;-0.10;98.20
76996;DHT22;65929;49.062;10.338;2023-12-07T02:35:12;-0.10;98.20
76996;DHT22;65929;49.062;10.338;2023-12-07T02:36:15;-0.10;98.20
76996;DHT22;65929;49.062;10.338;2023-12-07T02:37:18;-0.10;98.20
76996;DHT22;65929;49.062;10.338;2023-12-07T02:38:22;-0.10;98.20
76996;DHT22;65929;49.062;10.338;2023-12-07T02:39:23;-0.10;98.20
76996;DHT22;65929;49.062;10.338;2023-12-07T02:40:26;-0.10;98.20
76996;DHT22;65929;49.062;10.338;2023-12-07T02:41:31;-0.10;98.30
76996;DHT22;65929;49.062;10.338;2023-12-07T02:42:37;-0.10;98.30
76996;DHT22;65929;49.062;10.338;2023-12-07T02:43:39;-0.10;98.30
76996;DHT22;65929;49.062;10.338;2023-12-07T02:44:40;-0.10;98.30
76996;DHT22;65929;49.062;10.338;2023-12-07T02:45:42;-0.10;98.30
76996;DHT22;65929;49.062;10.338;2023-12-07T02:46:43;0.00;98.40
76996;DHT22;65929;49.062;10.338;2023-12-07T02:47:45;0.00;98.40
76996;DHT22;65929;49.062;10.338;2023-12-07T02:48:46;0.00;98.40
76996;DHT22;65929;49.062;10.338;2023-12-07T02:49:47;0.00;98.40
76996;DHT22;65929;49.062;10.338;2023-12-07T02:50:48;0.00;98.50
76996;DHT22;65929;49.062;10.338;2023-12-07T02:51:49;0.00;98.50
76996;DHT22;65929;49.062;10.338;2023-12-07T02:52:50;0.00;98.50
76996;DHT22;65929;49.062;10.338;2023-12-07T02:53:51;0.00;98.40
76996;DHT22;65929;49.062;10.338;2023-12-07T02:54:52;0.00;98.40
76996;DHT22;65929;49.062;10.338;2023-12-07T02:55:53;0.00;98.40
76996;DHT22;65929;49.062;10.338;2023-12-07T02:56:53;0.00;98.40
76996;DHT22;65929;49.062;10.338;2023-12-07T02:57:56;0.00;98.40
76996;DHT22;65929;49.062;10.338;2023-12-07T02:58:56;0.00;98.40
76996;DHT22;65929;49.062;10.338;2023-12-07T02:59:57;0.00;98.40
76996;DHT22;65929;49.062;10.338;2023-12-07T03:00:58;0.00;98.40
76996;DHT22;65929;49.062;10.338;2023-12-07T03:01:59;0.00;98.40
76996;DHT22;65929;49.062;10.338;2023-12-07T03:03:00;0.00;98.40
76996;DHT22;65929;49.062;10.338;2023-12-07T03:04:01;0.00;98.40
76996;DHT22;65929;49.062;10.338;2023-12-07T03:05:03;0.00;98.40
76996;DHT22;65929;49.062;10.338;2023-12-07T03:06:04;0.00;98.40
76996;DHT22;65929;49.062;10.338;2023-12-07T03:07:05;0.00;98.40
76996;DHT22;65929;49.062;10.338;2023-12-07T03:08:06;0.00;98.40
76996;DHT22;65929;49.062;10.338;2023-12-07T03:09:07;0.00;98.40
76996;DHT22;65929;49.062;10.338;2023-12-07T03:10:08;0.00;98.30
76996;DHT22;65929;49.062;10.338;2023-12-07T03:11:09;0.00;98.40
76996;DHT22;65929;49.062;10.338;2023-12-07T03:12:10;0.00;98.40
76996;DHT22;65929;49.062;10.338;2023-12-07T03:13:12;0.00;98.30
76996;DHT22;65929;49.062;10.338;2023-12-07T03:14:13;0.00;98.30
76996;DHT22;65929;49.062;10.338;2023-12-07T03:15:14;0.00;98.40
76996;DHT22;65929;49.062;10.338;2023-12-07T03:16:15;0.00;98.40
76996;DHT22;65929;49.062;10.338;2023-12-07T03:17:16;0.00;98.40
76996;DHT22;65929;49.062;10.338;2023-12-07T03:18:17;0.00;98.40
76996;DHT22;65929;49.062;10.338;2023-12-07T03:19:18;0.00;98.40
76996;DHT22;65929;49.062;10.338;2023-12-07T03:20:19;0.00;98.40
76996;DHT22;65929;49.062;10.338;2023-12-07T03:21:20;0.00;98.40
76996;DHT22;65929;49.062;10.338;2023-12-07T03:22:21;0.00;98.40
76996;DHT22;65929;49.062;10.338;2023-12-07T03:23:22;0.00;98.40
76996;DHT22;65929;49.062;10.338;2023-12-07T03:24:23;0.00;98.40
76996;DHT22;65929;49.062;10.338;2023-12-07T03:25:24;0.00;98.30
76996;DHT22;65929;49.062;10.338;2023-12-07T03:26:25;0.00;98.30
76996;DHT22;65929;49.062;10.338;2023-12-07T03:27:26;0.00;98.40
76996;DHT22;65929;49.062;10.338;2023-12-07T03:28:30;0.00;98.40
76996;DHT22;65929;49.062;10.338;2023-12-07T03:29:32;0.00;98.40
76996;DHT22;65929;49.062;10.338;2023-12-07T03:30:33;0.00;98.50
76996;DHT22;65929;49.062;10.338;2023-12-07T03:31:34;0.00;98.50
76996;DHT22;65929;49.062;10.338;2023-12-07T03:32:34;0.00;98.50
76996;DHT22;65929;49.062;10.338;2023-12-07T03:33:35;0.00;98.40
76996;DHT22;65929;49.062;10.338;2023-12-07T03:34:36;0.00;98.40
76996;DHT22;65929;49.062;10.338;2023-12-07T03:35:37;0.00;98.40
76996;DHT22;65929;49.062;10.338;2023-12-07T03:36:38;0.00;98.50
76996;DHT22;65929;49.062;10.338;2023-12-07T03:37:39;0.00;98.50
76996;DHT22;65929;49.062;10.338;2023-12-07T03:38:40;0.00;98.50
76996;DHT22;65929;49.062;10.338;2023-12-07T03:39:41;0.00;98.50
76996;DHT22;65929;49.062;10.338;2023-12-07T03:40:42;0.10;98.50
76996;DHT22;65929;49.062;10.338;2023-12-07T03:41:43;0.10;98.40
76996;DHT22;65929;49.062;10.338;2023-12-07T03:42:44;0.10;98.50
76996;DHT22;65929;49.062;10.338;2023-12-07T03:43:46;0.10;98.40
76996;DHT22;65929;49.062;10.338;2023-12-07T03:44:47;0.10;98.40
76996;DHT22;65929;49.062;10.338;2023-12-07T03:45:48;0.10;98.40
76996;DHT22;65929;49.062;10.338;2023-12-07T03:46:49;0.10;98.40
76996;DHT22;65929;49.062;10.338;2023-12-07T03:47:50;0.20;98.30
76996;DHT22;65929;49.062;10.338;2023-12-07T03:48:51;0.10;98.30
76996;DHT22;65929;49.062;10.338;2023-12-07T03:49:52;0.10;98.30
76996;DHT22;65929;49.062;10.338;2023-12-07T03:50:53;0.10;98.20
76996;DHT22;65929;49.062;10.338;2023-12-07T03:51:54;0.10;98.20
76996;DHT22;65929;49.062;10.338;2023-12-07T03:52:55;0.10;98.20
76996;DHT22;65929;49.062;10.338;2023-12-07T03:53:56;0.10;98.20
76996;DHT22;65929;49.062;10.338;2023-12-07T03:54:57;0.00;98.10
76996;DHT22;65929;49.062;10.338;2023-12-07T03:55:58;0.00;98.10
76996;DHT22;65929;49.062;10.338;2023-12-07T03:56:58;0.00;98.10
76996;DHT22;65929;49.062;10.338;2023-12-07T03:57:59;0.00;98.10
76996;DHT22;65929;49.062;10.338;2023-12-07T03:59:02;0.00;98.00
76996;DHT22;65929;49.062;10.338;2023-12-07T04:00:03;0.00;98.10
76996;DHT22;65929;49.062;10.338;2023-12-07T04:01:07;0.00;98.10
76996;DHT22;65929;49.062;10.338;2023-12-07T04:02:08;0.00;98.00
76996;DHT22;65929;49.062;10.338;2023-12-07T04:03:09;0.00;98.00
76996;DHT22;65929;49.062;10.338;2023-12-07T04:04:10;0.00;98.00
76996;DHT22;65929;49.062;10.338;2023-12-07T04:05:11;0.00;98.00
76996;DHT22;65929;49.062;10.338;2023-12-07T04:06:13;0.00;98.00
76996;DHT22;65929;49.062;10.338;2023-12-07T04:07:13;0.00;98.00
76996;DHT22;65929;49.062;10.338;2023-12-07T04:08:14;0.00;98.00
76996;DHT22;65929;49.062;10.338;2023-12-07T04:09:15;0.00;98.00
76996;DHT22;65929;49.062;10.338;2023-12-07T04:10:16;0.00;98.00
76996;DHT22;65929;49.062;10.338;2023-12-07T04:11:17;0.00;98.10
76996;DHT22;65929;49.062;10.338;2023-12-07T04:12:18;0.00;98.10
76996;DHT22;65929;49.062;10.338;2023-12-07T04:13:20;0.00;98.10
76996;DHT22;65929;49.062;10.338;2023-12-07T04:14:22;0.00;98.10
76996;DHT22;65929;49.062;10.338;2023-12-07T04:15:23;0.10;98.10
76996;DHT22;65929;49.062;10.338;2023-12-07T04:16:24;0.10;98.10
76996;DHT22;65929;49.062;10.338;2023-12-07T04:17:26;0.10;98.20
76996;DHT22;65929;49.062;10.338;2023-12-07T04:18:27;0.10;98.20
76996;DHT22;65929;49.062;10.338;2023-12-07T04:19:28;0.10;98.20
76996;DHT22;65929;49.062;10.338;2023-12-07T04:20:29;0.10;98.20
76996;DHT22;65929;49.062;10.338;2023-12-07T04:21:30;0.10;98.20
76996;DHT22;65929;49.062;10.338;2023-12-07T04:22:31;0.10;98.20
76996;DHT22;65929;49.062;10.338;2023-12-07T04:23:32;0.10;98.20
76996;DHT22;65929;49.062;10.338;2023-12-07T04:24:33;0.10;98.20
76996;DHT22;65929;49.062;10.338;2023-12-07T04:25:34;0.10;98.20
76996;DHT22;65929;49.062;10.338;2023-12-07T04:26:35;0.10;98.20
76996;DHT22;65929;49.062;10.338;2023-12-07T04:27:36;0.10;98.10
76996;DHT22;65929;49.062;10.338;2023-12-07T04:28:36;0.10;98.10
76996;DHT22;65929;49.062;10.338;2023-12-07T04:29:39;0.10;98.10
76996;DHT22;65929;49.062;10.338;2023-12-07T04:30:40;0.10;98.20
76996;DHT22;65929;49.062;10.338;2023-12-07T04:31:41;0.10;98.20
76996;DHT22;65929;49.062;10.338;2023-12-07T04:32:42;0.10;98.20
76996;DHT22;65929;49.062;10.338;2023-12-07T04:33:43;0.20;98.20
76996;DHT22;65929;49.062;10.338;2023-12-07T04:34:43;0.20;98.20
76996;DHT22;65929;49.062;10.338;2023-12-07T04:35:44;0.10;98.20
76996;DHT22;65929;49.062;10.338;2023-12-07T04:36:45;0.20;98.20
76996;DHT22;65929;49.062;10.338;2023-12-07T04:37:46;0.10;98.20
76996;DHT22;65929;49.062;10.338;2023-12-07T04:38:47;0.20;98.20
76996;DHT22;65929;49.062;10.338;2023-12-07T04:39:48;0.20;98.20
76996;DHT22;65929;49.062;10.338;2023-12-07T04:40:49;0.20;98.20
76996;DHT22;65929;49.062;10.338;2023-12-07T04:41:50;0.20;98.20
76996;DHT22;65929;49.062;10.338;2023-12-07T04:42:51;0.20;98.20
76996;DHT22;65929;49.062;10.338;2023-12-07T04:43:52;0.20;98.20
76996;DHT22;65929;49.062;10.338;2023-12-07T04:44:54;0.20;98.20
76996;DHT22;65929;49.062;10.338;2023-12-07T04:45:55;0.20;98.20
76996;DHT22;65929;49.062;10.338;2023-12-07T04:46:56;0.20;98.20
76996;DHT22;65929;49.062;10.338;2023-12-07T04:47:57;0.20;98.20
76996;DHT22;65929;49.062;10.338;2023-12-07T04:48:58;0.20;98.20
76996;DHT22;65929;49.062;10.338;2023-12-07T04:49:59;0.20;98.20
76996;DHT22;65929;49.062;10.338;2023-12-07T04:51:00;0.20;98.10
76996;DHT22;65929;49.062;10.338;2023-12-07T04:52:01;0.20;98.10
76996;DHT22;65929;49.062;10.338;2023-12-07T04:53:02;0.20;98.10
76996;DHT22;65929;49.062;10.338;2023-12-07T04:54:03;0.20;98.10
76996;DHT22;65929;49.062;10.338;2023-12-07T04:55:04;0.20;98.10
76996;DHT22;65929;49.062;10.338;2023-12-07T04:56:07;0.20;98.10
76996;DHT22;65929;49.062;10.338;2023-12-07T04:57:08;0.20;98.10
76996;DHT22;65929;49.062;10.338;2023-12-07T04:58:09;0.20;98.10
76996;DHT22;65929;49.062;10.338;2023-12-07T04:59:10;0.20;98.10
76996;DHT22;65929;49.062;10.338;2023-12-07T05:00:13;0.20;98.10
76996;DHT22;65929;49.062;10.338;2023-12-07T05:01:14;0.20;98.00
76996;DHT22;65929;49.062;10.338;2023-12-07T05:02:15;0.20;98.10
76996;DHT22;65929;49.062;10.338;2023-12-07T05:03:17;0.30;98.10
76996;DHT22;65929;49.062;10.338;2023-12-07T05:04:18;0.20;98.00
76996;DHT22;65929;49.062;10.338;2023-12-07T05:05:18;0.30;98.00
76996;DHT22;65929;49.062;10.338;2023-12-07T05:06:19;0.30;98.00
76996;DHT22;65929;49.062;10.338;2023-12-07T05:07:20;0.30;98.00
76996;DHT22;65929;49.062;10.338;2023-12-07T05:08:21;0.20;98.00
76996;DHT22;65929;49.062;10.338;2023-12-07T05:09:23;0.20;98.00
76996;DHT22;65929;49.062;10.338;2023-12-07T05:10:24;0.30;98.00
76996;DHT22;65929;49.062;10.338;2023-12-07T05:11:25;0.20;98.00
76996;DHT22;65929;49.062;10.338;2023-12-07T05:12:25;0.20;97.90
76996;DHT22;65929;49.062;10.338;2023-12-07T05:13:26;0.20;97.90
76996;DHT22;65929;49.062;10.338;2023-12-07T05:14:27;0.20;97.90
76996;DHT22;65929;49.062;10.338;2023-12-07T05:15:30;0.20;97.90
76996;DHT22;65929;49.062;10.338;2023-12-07T05:16:31;0.20;97.90
76996;DHT22;65929;49.062;10.338;2023-12-07T05:17:31;0.20;97.90
76996;DHT22;65929;49.062;10.338;2023-12-07T05:18:32;0.20;97.90
76996;DHT22;65929;49.062;10.338;2023-12-07T05:19:33;0.30;97.80
76996;DHT22;65929;49.062;10.338;2023-12-07T05:20:34;0.20;97.80
76996;DHT22;65929;49.062;10.338;2023-12-07T05:21:38;0.20;97.90
76996;DHT22;65929;49.062;10.338;2023-12-07T05:22:38;0.30;97.80
76996;DHT22;65929;49.062;10.338;2023-12-07T05:23:39;0.20;97.90
76996;DHT22;65929;49.062;10.338;2023-12-07T05:24:40;0.30;97.90
76996;DHT22;65929;49.062;10.338;2023-12-07T05:25:41;0.30;97.90
76996;DHT22;65929;49.062;10.338;2023-12-07T05:26:42;0.30;97.90
76996;DHT22;65929;49.062;10.338;2023-12-07T05:27:43;0.30;97.90
76996;DHT22;65929;49.062;10.338;2023-12-07T05:28:44;0.30;97.90
76996;DHT22;65929;49.062;10.338;2023-12-07T05:29:45;0.30;97.90
76996;DHT22;65929;49.062;10.338;2023-12-07T05:30:47;0.30;97.90
76996;DHT22;65929;49.062;10.338;2023-12-07T05:31:49;0.30;97.90
76996;DHT22;65929;49.062;10.338;2023-12-07T05:32:51;0.30;97.90
76996;DHT22;65929;49.062;10.338;2023-12-07T05:33:55;0.30;97.90
76996;DHT22;65929;49.062;10.338;2023-12-07T05:34:56;0.30;97.90
76996;DHT22;65929;49.062;10.338;2023-12-07T05:35:57;0.30;97.90
76996;DHT22;65929;49.062;10.338;2023-12-07T05:36:59;0.30;97.80
76996;DHT22;65929;49.062;10.338;2023-12-07T05:38:00;0.30;97.80
76996;DHT22;65929;49.062;10.338;2023-12-07T05:39:01;0.30;97.90
76996;DHT22;65929;49.062;10.338;2023-12-07T05:40:02;0.40;97.90
76996;DHT22;65929;49.062;10.338;2023-12-07T05:41:03;0.40;97.90
76996;DHT22;65929;49.062;10.338;2023-12-07T05:42:05;0.40;97.90
76996;DHT22;65929;49.062;10.338;2023-12-07T05:43:06;0.40;97.80
76996;DHT22;65929;49.062;10.338;2023-12-07T05:44:07;0.40;97.80
76996;DHT22;65929;49.062;10.338;2023-12-07T05:45:09;0.40;97.70
76996;DHT22;65929;49.062;10.338;2023-12-07T05:46:12;0.40;97.70
76996;DHT22;65929;49.062;10.338;2023-12-07T05:47:12;0.40;97.60
76996;DHT22;65929;49.062;10.338;2023-12-07T05:48:13;0.40;97.60
76996;DHT22;65929;49.062;10.338;2023-12-07T05:49:14;0.40;97.60
76996;DHT22;65929;49.062;10.338;2023-12-07T05:50:15;0.40;97.50
76996;DHT22;65929;49.062;10.338;2023-12-07T05:51:17;0.40;97.50
76996;DHT22;65929;49.062;10.338;2023-12-07T05:52:18;0.40;97.30
76996;DHT22;65929;49.062;10.338;2023-12-07T05:53:19;0.40;97.20
76996;DHT22;65929;49.062;10.338;2023-12-07T05:54:20;0.40;97.10
76996;DHT22;65929;49.062;10.338;2023-12-07T05:55:24;0.40;97.00
76996;DHT22;65929;49.062;10.338;2023-12-07T05:56:24;0.40;97.00
76996;DHT22;65929;49.062;10.338;2023-12-07T05:57:25;0.40;96.90
76996;DHT22;65929;49.062;10.338;2023-12-07T05:58:26;0.40;96.90
76996;DHT22;65929;49.062;10.338;2023-12-07T05:59:27;0.40;96.90
76996;DHT22;65929;49.062;10.338;2023-12-07T06:00:28;0.30;96.80
76996;DHT22;65929;49.062;10.338;2023-12-07T06:01:30;0.30;96.90
76996;DHT22;65929;49.062;10.338;2023-12-07T06:02:31;0.30;96.90
76996;DHT22;65929;49.062;10.338;2023-12-07T06:03:32;0.30;96.90
76996;DHT22;65929;49.062;10.338;2023-12-07T06:04:33;0.30;97.00
76996;DHT22;65929;49.062;10.338;2023-12-07T06:05:33;0.30;97.00
76996;DHT22;65929;49.062;10.338;2023-12-07T06:06:34;0.30;97.10
76996;DHT22;65929;49.062;10.338;2023-12-07T06:07:35;0.30;97.00
76996;DHT22;65929;49.062;10.338;2023-12-07T06:08:36;0.30;97.10
76996;DHT22;65929;49.062;10.338;2023-12-07T06:09:37;0.30;97.10
76996;DHT22;65929;49.062;10.338;2023-12-07T06:10:38;0.30;97.00
76996;DHT22;65929;49.062;10.338;2023-12-07T06:11:39;0.30;97.10
76996;DHT22;65929;49.062;10.338;2023-12-07T06:12:41;0.30;97.10
76996;DHT22;65929;49.062;10.338;2023-12-07T06:13:42;0.40;97.00
76996;DHT22;65929;49.062;10.338;2023-12-07T06:14:43;0.40;97.00
76996;DHT22;65929;49.062;10.338;2023-12-07T06:15:43;0.30;97.00
76996;DHT22;65929;49.062;10.338;2023-12-07T06:16:46;0.30;97.00
76996;DHT22;65929;49.062;10.338;2023-12-07T06:17:47;0.40;97.00
76996;DHT22;65929;49.062;10.338;2023-12-07T06:18:47;0.40;97.00
76996;DHT22;65929;49.062;10.338;2023-12-07T06:19:48;0.40;97.00
76996;DHT22;65929;49.062;10.338;2023-12-07T06:20:49;0.40;96.90
76996;DHT22;65929;49.062;10.338;2023-12-07T06:21:50;0.40;96.90
76996;DHT22;65929;49.062;10.338;2023-12-07T06:22:51;0.40;96.80
76996;DHT22;65929;49.062;10.338;2023-12-07T06:23:52;0.40;96.80
76996;DHT22;65929;49.062;10.338;2023-12-07T06:24:53;0.40;96.70
76996;DHT22;65929;49.062;10.338;2023-12-07T06:25:54;0.40;96.70
76996;DHT22;65929;49.062;10.338;2023-12-07T06:26:55;0.40;96.70
76996;DHT22;65929;49.062;10.338;2023-12-07T06:27:56;0.40;96.70